Thalassa — FNFP — position and weather

sailwx.info

Track history (hours):
 
Tides and Currents Weather Stations Pressure Air Temp Water Temp Dewpoint Dewpoint Depression Visibility Wind Speed Wind Dir Waves Ship Positions

Oceanographic research ship Thalassa (France & Spain)

Detailed information on ship capabilities available from University of Delaware's Ocean Information Center.

Last reported at 2020-Mar-31 08:14 UTC. Time now 2020-Jul-08 10:58 UTC.
Position N 48°23' W 004°29'.
Warning: this ship's position is months out of date.

Length 74 m; beam 15 m.

Type: Other ship. MMSI: 227297000.

Date/timePositionNaut miles runAvg speedWind from/ knotsBaromVisibWave heightAir tempDewpointWater temp
2020-Mar-31 08:14N 48°23' W 004°29'0 0.0
2020-Mar-31 07:29N 48°23' W 004°29'0 0.0
2020-Mar-31 06:29N 48°23' W 004°29'0 0.0
2020-Mar-31 04:59N 48°23' W 004°29'0 0.0
2020-Mar-31 04:29N 48°23' W 004°29'0 0.0
2020-Mar-31 03:29N 48°23' W 004°29'0 0.0
2020-Mar-31 00:59N 48°23' W 004°29'0 0.0
2020-Mar-30 23:29N 48°23' W 004°29'0 0.0
2020-Mar-30 21:29N 48°23' W 004°29'0 0.0
2020-Mar-30 20:59N 48°23' W 004°29'0 0.0
2020-Mar-30 17:29N 48°23' W 004°29'0 0.0
2020-Mar-30 16:29N 48°23' W 004°29'1 0.6
2020-Mar-30 14:31N 48°22' W 004°29'4 8.1
2020-Mar-30 14:00N 48°20' W 004°35'11 5.5
2020-Mar-30 12:00N 48°15' W 004°50'14 9.5
2020-Mar-30 10:30N 48°07' W 005°07'17 8.5
2020-Mar-30 08:30N 47°54' W 005°22'4 8.0
2020-Mar-30 08:00N 47°50' W 005°26'  
2020-Mar-27 17:01N 38°51' W 009°43'510.7
2020-Mar-27 16:30N 38°45' W 009°42'510.7
2020-Mar-27 16:00N 38°40' W 009°41'1110.9
2020-Mar-27 15:00N 38°37' W 009°28'12 8.1
2020-Mar-27 13:29N 38°41' W 009°13'0 0.0
2020-Mar-27 12:30N 38°41' W 009°13'0 0.0
2020-Mar-27 12:01N 38°41' W 009°13'0 0.0
2020-Mar-27 10:30N 38°41' W 009°13'0 0.0
2020-Mar-27 10:00N 38°41' W 009°13'1 0.5
2020-Mar-27 08:01N 38°41' W 009°14'16 7.8
2020-Mar-27 06:00N 38°30' W 009°28'2610.4
2020-Mar-27 03:29N 38°06' W 009°42'  
2020-Mar-24 17:30N 28°46' W 014°41'4 7.5
2020-Mar-24 16:59N 28°42' W 014°42'14 9.4
2020-Mar-24 15:30N 28°29' W 014°47'15 9.7
2020-Mar-24 14:00N 28°15' W 014°52'5 9.8
2020-Mar-24 13:30N 28°10' W 014°54'5 9.7
2020-Mar-24 13:00N 28°05' W 014°56'29 9.7
2020-Mar-24 10:00N 27°39' W 015°09'  
Track history (hours):
 
Tides and Currents Weather Stations Pressure Air Temp Water Temp Dewpoint Dewpoint Depression Visibility Wind Speed Wind Dir Waves Ship Positions

Oceanographic research ship Thalassa (France & Spain)

Detailed information on ship capabilities available from University of Delaware's Ocean Information Center.

Last reported at 2020-Mar-31 08:14 UTC. Time now 2020-Jul-08 10:58 UTC.
Position N 48°23' W 004°29'.
Warning: this ship's position is months out of date.

Length 74 m; beam 15 m.

Type: Other ship. MMSI: 227297000.

Date/timePositionNaut miles runAvg speedWind from/ knotsBaromVisibWave heightAir tempDewpointWater temp
2020-Mar-31 08:14N 48°23' W 004°29'0 0.0
2020-Mar-31 07:29N 48°23' W 004°29'0 0.0
2020-Mar-31 06:29N 48°23' W 004°29'0 0.0
2020-Mar-31 04:59N 48°23' W 004°29'0 0.0
2020-Mar-31 04:29N 48°23' W 004°29'0 0.0
2020-Mar-31 03:29N 48°23' W 004°29'0 0.0
2020-Mar-31 00:59N 48°23' W 004°29'0 0.0
2020-Mar-30 23:29N 48°23' W 004°29'0 0.0
2020-Mar-30 21:29N 48°23' W 004°29'0 0.0
2020-Mar-30 20:59N 48°23' W 004°29'0 0.0
2020-Mar-30 17:29N 48°23' W 004°29'0 0.0
2020-Mar-30 16:29N 48°23' W 004°29'1 0.6
2020-Mar-30 14:31N 48°22' W 004°29'4 8.1
2020-Mar-30 14:00N 48°20' W 004°35'11 5.5
2020-Mar-30 12:00N 48°15' W 004°50'14 9.5
2020-Mar-30 10:30N 48°07' W 005°07'17 8.5
2020-Mar-30 08:30N 47°54' W 005°22'4 8.0
2020-Mar-30 08:00N 47°50' W 005°26'  
2020-Mar-27 17:01N 38°51' W 009°43'510.7
2020-Mar-27 16:30N 38°45' W 009°42'510.7
2020-Mar-27 16:00N 38°40' W 009°41'1110.9
2020-Mar-27 15:00N 38°37' W 009°28'12 8.1
2020-Mar-27 13:29N 38°41' W 009°13'0 0.0
2020-Mar-27 12:30N 38°41' W 009°13'0 0.0
2020-Mar-27 12:01N 38°41' W 009°13'0 0.0
2020-Mar-27 10:30N 38°41' W 009°13'0 0.0
2020-Mar-27 10:00N 38°41' W 009°13'1 0.5
2020-Mar-27 08:01N 38°41' W 009°14'16 7.8
2020-Mar-27 06:00N 38°30' W 009°28'2610.4
2020-Mar-27 03:29N 38°06' W 009°42'  
2020-Mar-24 17:30N 28°46' W 014°41'4 7.5
2020-Mar-24 16:59N 28°42' W 014°42'14 9.4
2020-Mar-24 15:30N 28°29' W 014°47'15 9.7
2020-Mar-24 14:00N 28°15' W 014°52'5 9.8
2020-Mar-24 13:30N 28°10' W 014°54'5 9.7
2020-Mar-24 13:00N 28°05' W 014°56'29 9.7
2020-Mar-24 10:00N 27°39' W 015°09'  

Dump ship's entire track history